Terminal Aerodrome Forecast
Issued by NWS Pendleton, OR

Home | Current Version | Previous Version | Text Only | Print | Product List | Glossary On
Versions: 1 2 3 4 5 6 7 8 9 10 11 12 13 14 15
000
FTUS46 KPDT 021100
TAFPDT
TAF
KPDT 021134Z 0212/0312 17007KT P6SM SCT100
     FM021500 VRB06KT P6SM SCT150
     FM022000 34008KT P6SM FEW250
     FM030600 15007KT P6SM SCT250=

USA.gov is the U.S. government's official web portal to all federal, state and local government web resources and services.